Flight Track Log - Related Links

Times and Time Zones

All times are in EDT time to prevent confusion due to time zone crossing. See the TRS398 flight status page for this flight to view local times or setup timezone preferences in your user account.

Time Position Orientation Groundspeed Altitude Reporting Facility
EDT Latitude Longitude Course Direction KTS MPH feet Rate Location/Type
Sun 07:17:23 PM 28.4000 -81.3000 139° Southeast 164 189 500  Level Orlando TRACON
Sun 07:17:59 PM 28.3833 -81.2833 139° Southeast 201 231 1,600 1,438 Climbing Orlando TRACON
Sun 07:18:59 PM 28.3333 -81.2167 130° Southeast 277 319 2,800 1,488 Climbing Orlando TRACON
Sun 07:20:00 PM 28.3500 -81.1500 74° East 286 329 4,600 1,983 Climbing Orlando TRACON
Sun 07:21:00 PM 28.4333 -81.1500 360° North 274 315 6,800 2,143 Climbing Orlando TRACON
Sun 07:22:06 PM 28.5167 -81.1667 350° North 282 325 9,100 1,564 Climbing Orlando TRACON
Sun 07:24:31 PM 28.7131 -81.2331 343° North 310 357 12,300 1,376 Climbing Jacksonville Center
Sun 07:25:31 PM 28.8097 -81.2719 341° North 343 395 13,800 1,500 Climbing Jacksonville Center
Sun 07:26:31 PM 28.9083 -81.3153 339° North 363 418 15,300 1,450 Climbing Jacksonville Center
Sun 07:27:31 PM 29.0089 -81.3564 340° North 378 435 16,700 1,300 Climbing Jacksonville Center
Sun 07:28:31 PM 29.1139 -81.4047 338° Northwest 389 448 17,900 1,250 Climbing Jacksonville Center
Sun 07:29:31 PM 29.1956 -81.4417 338° Northwest 395 455 19,200 1,400 Climbing Jacksonville Center
Sun 07:30:31 PM 29.3278 -81.5017 338° Northwest 405 466 20,700 1,350 Climbing Jacksonville Center
Sun 07:31:31 PM 29.4369 -81.5500 339° North 415 478 21,900 1,150 Climbing Jacksonville Center
Sun 07:32:31 PM 29.5439 -81.6131 333° Northwest 420 483 23,000 1,000 Climbing Jacksonville Center
Sun 07:33:31 PM 29.6389 -81.7122 318° Northwest 436 502 23,900 1,000 Climbing Jacksonville Center
Sun 07:34:31 PM 29.7317 -81.8092 318° Northwest 448 516 25,000 1,000 Climbing Jacksonville Center
Sun 07:35:31 PM 29.8264 -81.9061 318° Northwest 453 521 25,900 850 Climbing Jacksonville Center
Sun 07:36:31 PM 29.9211 -82.0058 318° Northwest 453 521 26,700 850 Climbing Jacksonville Center
Sun 07:37:31 PM 30.0178 -82.1081 318° Northwest 458 527 27,600 900 Climbing Jacksonville Center
Sun 07:38:31 PM 30.1058 -82.1939 320° Northwest 458 527 28,500 950 Climbing Jacksonville Center
Sun 07:39:31 PM 30.2253 -82.2578 335° Northwest 458 527 29,500 1,200 Climbing Jacksonville Center
Sun 07:40:31 PM 30.3467 -82.3053 341° North 458 527 30,900 750 Climbing Jacksonville Center
Sun 07:41:31 PM 30.4783 -82.3600 340° North 458 527 31,000 50 Climbing Jacksonville Center
Sun 07:42:31 PM 30.5975 -82.4075 341° North 453 521 31,000  Level Jacksonville Center
Sun 07:43:31 PM 30.7189 -82.4528 342° North 453 521 31,000  Level Jacksonville Center
Sun 07:44:31 PM 30.8422 -82.5031 341° North 453 521 31,000  Level Jacksonville Center
Sun 07:45:31 PM 30.9633 -82.5486 342° North 453 521 31,000  Level Jacksonville Center
Sun 07:46:31 PM 31.0867 -82.5967 342° North 453 521 31,000  Level Jacksonville Center
Sun 07:47:31 PM 31.2058 -82.6425 342° North 453 521 31,000  Level Jacksonville Center
Sun 07:48:31 PM 31.3292 -82.6883 342° North 458 527 31,000  Level Jacksonville Center
Sun 07:49:31 PM 31.4544 -82.7342 343° North 464 534 31,000  Level Jacksonville Center
Sun 07:52:19 PM 31.7975 -82.8758 341° North 463 533 31,000  Level Atlanta Center
Sun 07:53:19 PM 31.9211 -82.9231 342° North 463 533 31,000  Level Atlanta Center
Sun 07:54:19 PM 32.0447 -82.9731 341° North 463 533 31,000  Level Atlanta Center
Sun 07:55:19 PM 32.1681 -83.0206 342° North 468 539 31,000  Level Atlanta Center
Sun 07:56:19 PM 32.2772 -83.0981 329° Northwest 463 533 31,000  Level Atlanta Center
Sun 07:57:19 PM 32.3700 -83.2003 317° Northwest 458 527 31,000  Level Atlanta Center
Sun 07:58:19 PM 32.4542 -83.3003 315° West 464 534 31,000  Level Atlanta Center
Sun 07:59:19 PM 32.5486 -83.4031 317° Northwest 464 534 31,000  Level Atlanta Center
Sun 08:00:19 PM 32.6431 -83.5083 317° Northwest 464 534 31,000  Level Atlanta Center
Sun 08:01:19 PM 32.7353 -83.6117 317° Northwest 459 528 31,000  Level Atlanta Center
Sun 08:02:19 PM 32.8294 -83.7150 317° Northwest 464 534 31,000  Level Atlanta Center
Sun 08:03:19 PM 32.9258 -83.8161 319° Northwest 464 534 31,000 350 Level Atlanta Center
Sun 08:04:19 PM 33.0219 -83.9150 319° Northwest 458 527 31,700 500 Climbing Atlanta Center
Sun 08:05:19 PM 33.1222 -84.0314 316° Northwest 453 521 32,000 150 Climbing Atlanta Center
Sun 08:06:19 PM 33.2203 -84.1306 320° Northwest 453 521 32,000  Level Atlanta Center
Sun 08:07:19 PM 33.3286 -84.2103 328° Northwest 459 528 32,000  Level Atlanta Center
Sun 08:08:19 PM 33.4369 -84.2878 329° Northwest 454 522 32,000  Level Atlanta Center
Sun 08:09:19 PM 33.5456 -84.3678 328° Northwest 454 522 32,000  Level Atlanta Center
Sun 08:10:19 PM 33.6558 -84.4481 329° Northwest 448 516 32,000  Level Atlanta Center
Sun 08:11:19 PM 33.7661 -84.5311 328° Northwest 454 522 32,000  Level Atlanta Center
Sun 08:12:19 PM 33.8892 -84.5769 343° North 459 528 32,000  Level Atlanta Center
Sun 08:13:19 PM 34.0183 -84.6103 348° North 459 528 32,000  Level Atlanta Center
Sun 08:14:19 PM 34.1475 -84.6411 349° North 464 534 32,000  Level Atlanta Center
Sun 08:15:19 PM 34.2811 -84.6697 350° North 479 551 32,000  Level Atlanta Center
Sun 08:16:19 PM 34.4103 -84.6983 350° North 479 551 32,000  Level Atlanta Center
Sun 08:17:19 PM 34.5375 -84.7247 350° North 469 540 32,000  Level Atlanta Center
Sun 08:18:19 PM 34.6644 -84.7586 348° North 464 534 32,000  Level Atlanta Center
Sun 08:19:19 PM 34.7917 -84.7900 349° North 459 528 32,000  Level Atlanta Center
Sun 08:20:19 PM 34.9208 -84.8164 350° North 464 534 32,000  Level Atlanta Center
Sun 08:21:19 PM 35.0481 -84.8456 349° North 464 534 32,000  Level Atlanta Center
Sun 08:22:19 PM 35.1772 -84.8772 349° North 464 534 32,000  Level Atlanta Center
Sun 08:23:19 PM 35.3022 -84.9067 349° North 464 534 32,000  Level Atlanta Center
Sun 08:24:19 PM 35.4314 -84.9333 350° North 464 534 32,000  Level Atlanta Center
Sun 08:25:19 PM 35.5606 -84.9656 349° North 469 540 32,000  Level Atlanta Center
Sun 08:26:19 PM 35.6875 -84.9950 349° North 469 540 32,000  Level Atlanta Center
Sun 08:27:19 PM 35.8039 -85.0269 347° North 469 540 32,000  Level Atlanta Center
Sun 08:28:19 PM 35.9394 -85.0594 349° North 475 547 32,000  Level Atlanta Center
Sun 08:29:37 PM 36.1175 -85.0950 351° North 472 543 32,000  Level Indianapolis Center
Sun 08:30:39 PM 36.2444 -85.1244 349° North 465 535 32,000  Level Indianapolis Center
Sun 08:31:41 PM 36.3708 -85.1539 349° North 462 532 32,000  Level Indianapolis Center
Sun 08:32:43 PM 36.4958 -85.1844 349° North 457 526 32,000  Level Indianapolis Center
Sun 08:33:45 PM 36.6231 -85.2158 349° North 464 534 32,000  Level Indianapolis Center
Sun 08:34:46 PM 36.7494 -85.2447 350° North 462 532 32,000  Level Indianapolis Center
Sun 08:35:48 PM 36.8964 -85.2958 344° North 456 525 32,000  Level Indianapolis Center
Sun 08:36:50 PM 37.0150 -85.3494 340° North 455 524 32,000  Level Indianapolis Center
Sun 08:37:52 PM 37.1353 -85.4047 340° North 458 527 32,000  Level Indianapolis Center
Sun 08:38:54 PM 37.2542 -85.4606 340° North 455 524 32,000  Level Indianapolis Center
Sun 08:39:56 PM 37.3725 -85.5147 340° North 453 521 32,000  Level Indianapolis Center
Sun 08:40:57 PM 37.4933 -85.5714 340° North 462 532 32,000  Level Indianapolis Center
Sun 08:41:59 PM 37.6106 -85.6256 340° North 450 518 32,000  Level Indianapolis Center
Sun 08:43:01 PM 37.7292 -85.6808 340° North 452 520 32,000  Level Indianapolis Center
Sun 08:44:03 PM 37.8706 -85.7483 339° North 454 522 32,000  Level Indianapolis Center
Sun 08:45:05 PM 37.9889 -85.8042 340° North 454 522 32,000  Level Indianapolis Center
Sun 08:46:06 PM 38.1089 -85.8611 340° North 458 527 32,000  Level Indianapolis Center
Sun 08:47:08 PM 38.2278 -85.9183 339° North 457 526 32,000  Level Indianapolis Center
Sun 08:48:10 PM 38.3467 -85.9753 339° North 457 526 32,000  Level Indianapolis Center
Sun 08:49:12 PM 38.4672 -86.0331 339° North 461 531 32,000  Level Indianapolis Center
Sun 08:50:13 PM 38.5878 -86.0906 340° North 463 533 32,000  Level Indianapolis Center
Sun 08:51:15 PM 38.7067 -86.1478 339° North 459 528 32,000  Level Indianapolis Center
Sun 08:52:17 PM 38.8483 -86.2172 339° North 455 524 32,000  Level Indianapolis Center
Sun 08:53:18 PM 38.9500 -86.2664 339° North 455 524 32,000  Level Indianapolis Center
Sun 08:54:20 PM 39.0911 -86.3344 339° North 452 520 32,000  Level Indianapolis Center
Sun 08:55:22 PM 39.2081 -86.3928 339° North 450 518 32,000  Level Indianapolis Center
Sun 08:56:23 PM 39.3253 -86.4514 339° North 452 520 32,000  Level Indianapolis Center
Sun 08:57:25 PM 39.4436 -86.5094 339° North 452 520 32,000  Level Indianapolis Center
Sun 08:58:27 PM 39.5639 -86.5694 339° North 459 528 32,000  Level Indianapolis Center
Sun 08:59:28 PM 39.6850 -86.6300 339° North 460 529 32,000  Level Indianapolis Center
Sun 09:00:30 PM 39.8069 -86.6897 339° North 462 532 32,000  Level Indianapolis Center
Sun 09:01:32 PM 39.9269 -86.7503 339° North 460 529 32,000  Level Indianapolis Center
Sun 09:02:33 PM 40.0467 -86.8106 339° North 459 528 32,000  Level Indianapolis Center
Sun 09:03:35 PM 40.1914 -86.8831 339° North 462 532 32,000  Level Indianapolis Center
Sun 09:04:06 PM 40.2389 -86.9078 338° Northwest 461 531 32,000  Level Chicago Center
Sun 09:05:07 PM 40.3583 -86.9678 339° North 462 532 32,000  Level Chicago Center
Sun 09:06:09 PM 40.4783 -87.0272 339° North 462 532 32,000  Level Chicago Center
Sun 09:07:11 PM 40.6272 -87.0789 345° North 470 541 32,000  Level Chicago Center
Sun 09:08:13 PM 40.7614 -87.0928 356° North 473 544 32,000  Level Chicago Center
Sun 09:09:15 PM 40.8900 -87.1106 354° North 470 541 32,000  Level Chicago Center
Sun 09:10:17 PM 41.0172 -87.1269 354° North 467 537 32,000  Level Chicago Center
Sun 09:11:19 PM 41.1447 -87.1431 355° North 465 535 32,000  Level Chicago Center
Sun 09:12:21 PM 41.2736 -87.1608 354° North 468 539 32,000 -341 Level Chicago Center
Sun 09:13:22 PM 41.4269 -87.1806 354° North 468 539 31,300 -1,220 Descending Chicago Center
Sun 09:14:24 PM 41.5569 -87.1975 354° North 474 545 29,500 -2,516 Descending Chicago Center
Sun 09:15:26 PM 41.6889 -87.2064 357° North 478 550 26,100 -2,806 Descending Chicago Center
Sun 09:16:28 PM 41.8206 -87.1925 North 481 554 23,700 -1,984 Descending Chicago Center
Sun 09:17:30 PM 41.9467 -87.1778 North 467 537 22,000 -823 Descending Chicago Center
Sun 09:18:32 PM 42.0933 -87.1561 North 449 517 22,000  Level Chicago Center
Sun 09:19:34 PM 42.2169 -87.1308 North 451 519 22,000 -919 Level Chicago Center
Sun 09:20:36 PM 42.3322 -87.1428 356° North 426 490 20,100 -2,323 Descending Chicago Center
Sun 09:21:38 PM 42.4269 -87.2169 330° Northwest 402 463 17,200 -2,780 Descending Chicago Center
Sun 09:22:39 PM 42.5164 -87.3075 323° Northwest 381 438 14,400 -2,634 Descending Chicago Center
Sun 09:23:41 PM 42.5844 -87.4264 308° West 357 411 11,800 -1,935 Descending Chicago Center
Sun 09:24:43 PM 42.6319 -87.5336 301° West 329 379 10,400 -1,306 Descending Chicago Center
Sun 09:25:45 PM 42.6814 -87.6150 310° West 282 325 9,100 -1,452 Descending Chicago Center
Sun 09:26:47 PM 42.7431 -87.6725 326° Northwest 274 315 7,400 -1,016 Descending Chicago Center
Sun 09:27:49 PM 42.8103 -87.7228 331° Northwest 274 315 7,000 -194 Descending Chicago Center
Sun 09:28:51 PM 42.8769 -87.7742 331° Northwest 275 316 7,000  Level Chicago Center
Sun 09:29:53 PM 42.8742 -87.8750 268° West 267 307 7,000 -48 Level Chicago Center
Sun 09:30:55 PM 42.8353 -87.9597 238° Southwest 264 304 6,900 -629 Descending Chicago Center
Sun 09:31:57 PM 42.8103 -88.0353 246° West 223 257 5,700 -1,306 Descending Chicago Center
Sun 09:32:59 PM 42.8378 -88.0939 303° West 220 253 4,200 -1,355 Descending Chicago Center
Sun 09:34:01 PM 42.8869 -88.0856 North 200 230 2,900 -968 Descending Chicago Center
Sun 09:35:03 PM 42.9144 -88.0164 61° Northeast 187 215 2,200 -677 Descending Chicago Center
Sun 09:36:05 PM 42.9253 -87.9706 72° East 144 166 1,500 -629 Descending Chicago Center
Sun 09:37:07 PM 42.9372 -87.9258 70° East 130 150 900 -581 Descending Chicago Center
Sun 09:39:00 PM 42.9469 -87.8971 39° Northeast  Level Estimated

Login

Don't have an account? Register now (free) for customized features, flight alerts, and more!